createdAt,value
2023-05-14T00:00:32.801Z,95031.00
2023-05-14T00:01:32.884Z,95031.00
2023-05-14T00:02:33.025Z,95031.00
2023-05-14T00:03:33.046Z,95029.00
2023-05-14T00:04:33.166Z,95027.00
2023-05-14T00:05:33.160Z,95027.00
2023-05-14T00:06:33.227Z,95027.00
2023-05-14T00:07:33.313Z,95027.00
2023-05-14T00:08:33.389Z,95027.00
2023-05-14T00:09:33.470Z,95027.00
2023-05-14T00:10:33.545Z,95027.00
2023-05-14T00:11:33.623Z,95027.00
2023-05-14T00:12:33.733Z,95027.00
2023-05-14T00:13:33.792Z,95027.00
2023-05-14T00:14:33.872Z,95027.00
2023-05-14T00:15:34.491Z,95027.00
2023-05-14T00:16:34.109Z,95027.00
2023-05-14T00:17:34.122Z,95027.00
2023-05-14T00:18:34.236Z,95027.00
2023-05-14T00:19:34.273Z,95029.00
2023-05-14T00:20:34.354Z,95025.00
2023-05-14T00:21:34.443Z,95025.00
2023-05-14T00:22:34.520Z,95023.00
2023-05-14T00:23:34.634Z,95023.00
2023-05-14T00:24:34.689Z,95021.00
2023-05-14T00:25:34.759Z,95023.00
2023-05-14T00:26:34.844Z,95023.00
2023-05-14T00:27:34.960Z,95023.00
2023-05-14T00:28:35.030Z,95025.00
2023-05-14T00:29:35.090Z,95025.00
2023-05-14T00:30:35.176Z,95025.00
2023-05-14T00:31:35.345Z,95021.00
2023-05-14T00:32:35.443Z,95023.00
2023-05-14T00:33:35.440Z,95021.00
2023-05-14T00:34:35.520Z,95025.00
2023-05-14T00:35:35.603Z,95023.00
2023-05-14T00:36:35.701Z,95021.00
2023-05-14T00:37:35.779Z,95021.00
2023-05-14T00:38:35.870Z,95019.00
2023-05-14T00:39:35.994Z,95021.00
2023-05-14T00:40:36.042Z,95019.00
2023-05-14T00:41:36.133Z,95019.00
2023-05-14T00:42:36.199Z,95019.00
2023-05-14T00:43:36.284Z,95021.00
2023-05-14T00:44:36.391Z,95021.00
2023-05-14T00:45:36.433Z,95023.00
2023-05-14T00:46:36.570Z,95023.00
2023-05-14T00:47:36.637Z,95023.00
2023-05-14T00:48:36.685Z,95023.00
2023-05-14T00:49:36.754Z,95023.00
2023-05-14T00:50:36.835Z,95023.00
2023-05-14T00:51:36.914Z,95021.00
2023-05-14T00:52:36.999Z,95019.00
2023-05-14T00:53:37.081Z,95019.00
2023-05-14T00:54:37.154Z,95017.00
2023-05-14T00:55:37.232Z,95017.00
2023-05-14T00:56:37.317Z,95013.00
2023-05-14T00:57:37.398Z,95013.00
2023-05-14T00:58:37.476Z,95015.00
2023-05-14T00:59:37.572Z,95013.00
2023-05-14T01:00:37.732Z,95013.00
2023-05-14T01:01:37.725Z,95013.00
2023-05-14T01:02:37.889Z,95009.00
2023-05-14T01:03:37.965Z,95009.00
2023-05-14T01:04:37.970Z,95011.00
2023-05-14T01:05:38.050Z,95009.00
2023-05-14T01:06:38.115Z,95009.00
2023-05-14T01:07:38.194Z,95007.00
2023-05-14T01:08:38.281Z,95009.00
2023-05-14T01:09:38.360Z,95007.00
2023-05-14T01:10:38.438Z,95009.00
2023-05-14T01:11:38.520Z,95006.00
2023-05-14T01:12:38.607Z,95006.00
2023-05-14T01:13:38.685Z,95006.00
2023-05-14T01:14:38.771Z,95006.00
2023-05-14T01:15:38.855Z,95006.00
2023-05-14T01:16:39.000Z,95007.00
2023-05-14T01:17:39.049Z,95006.00
2023-05-14T01:18:39.163Z,95009.00
2023-05-14T01:19:39.212Z,95007.00
2023-05-14T01:20:39.270Z,95007.00
2023-05-14T01:21:39.347Z,95007.00
2023-05-14T01:22:39.430Z,95007.00
2023-05-14T01:23:39.517Z,95009.00
2023-05-14T01:24:39.626Z,95009.00
2023-05-14T01:25:39.687Z,95009.00
2023-05-14T01:26:39.781Z,95007.00
2023-05-14T01:27:39.867Z,95007.00
2023-05-14T01:28:39.948Z,95009.00
2023-05-14T01:29:40.024Z,95007.00
2023-05-14T01:30:40.108Z,95007.00
2023-05-14T01:31:40.201Z,95004.00
2023-05-14T01:32:40.339Z,95004.00
2023-05-14T01:33:40.373Z,95006.00
2023-05-14T01:34:40.453Z,95006.00
2023-05-14T01:35:40.543Z,95004.00
2023-05-14T01:36:40.625Z,95004.00
2023-05-14T01:37:40.719Z,95002.00
2023-05-14T01:38:40.798Z,95007.00
2023-05-14T01:39:40.887Z,95007.00
2023-05-14T01:40:40.981Z,95009.00
2023-05-14T01:41:41.071Z,95009.00
2023-05-14T01:42:41.149Z,95002.00
2023-05-14T01:43:41.232Z,95002.00
2023-05-14T01:44:41.316Z,95000.00
2023-05-14T01:45:41.409Z,95000.00
2023-05-14T01:46:41.585Z,94998.00
2023-05-14T01:47:41.585Z,95000.00
2023-05-14T01:48:41.678Z,95002.00
2023-05-14T01:49:41.732Z,95002.00
2023-05-14T01:50:41.824Z,95002.00
2023-05-14T01:51:41.903Z,95002.00
2023-05-14T01:52:41.991Z,95004.00
2023-05-14T01:53:42.099Z,95006.00
2023-05-14T01:54:42.178Z,95006.00
2023-05-14T01:55:42.298Z,95004.00
2023-05-14T01:56:42.333Z,95002.00
2023-05-14T01:57:42.410Z,95002.00
2023-05-14T01:58:42.525Z,95004.00
2023-05-14T01:59:42.590Z,95002.00
2023-05-14T02:00:42.672Z,95002.00
2023-05-14T02:01:42.810Z,95000.00
2023-05-14T02:02:42.850Z,94998.00
2023-05-14T02:03:42.943Z,95000.00
2023-05-14T02:04:43.034Z,94998.00
2023-05-14T02:05:43.100Z,94996.00
2023-05-14T02:06:43.180Z,94996.00
2023-05-14T02:07:43.269Z,94996.00
2023-05-14T02:08:43.362Z,94994.00
2023-05-14T02:09:43.447Z,94992.00
2023-05-14T02:10:43.520Z,94996.00
2023-05-14T02:11:43.604Z,94994.00
2023-05-14T02:12:43.696Z,94994.00
2023-05-14T02:13:43.784Z,94992.00
2023-05-14T02:14:43.881Z,94990.00
2023-05-14T02:15:43.985Z,94988.00
2023-05-14T02:16:44.026Z,94990.00
2023-05-14T02:17:44.152Z,94988.00
2023-05-14T02:18:44.206Z,94988.00
2023-05-14T02:19:44.264Z,94990.00
2023-05-14T02:20:44.379Z,94990.00
2023-05-14T02:21:45.262Z,94990.00
2023-05-14T02:22:44.530Z,94988.00
2023-05-14T02:23:44.607Z,94988.00
2023-05-14T02:24:44.695Z,94990.00
2023-05-14T02:25:44.821Z,94992.00
2023-05-14T02:26:44.867Z,94988.00
2023-05-14T02:27:44.961Z,94990.00
2023-05-14T02:28:45.048Z,94992.00
2023-05-14T02:29:45.145Z,94992.00
2023-05-14T02:30:45.229Z,94990.00
2023-05-14T02:31:45.327Z,94988.00
2023-05-14T02:32:45.429Z,94990.00
2023-05-14T02:33:45.492Z,94994.00
2023-05-14T02:34:45.588Z,94992.00
2023-05-14T02:35:45.694Z,94990.00
2023-05-14T02:36:45.741Z,94992.00
2023-05-14T02:37:45.826Z,94988.00
2023-05-14T02:38:45.917Z,94984.00
2023-05-14T02:39:46.005Z,94982.00
2023-05-14T02:40:46.102Z,94982.00
2023-05-14T02:41:46.180Z,94984.00
2023-05-14T02:42:46.266Z,94980.00
2023-05-14T02:43:46.356Z,94980.00
2023-05-14T02:44:46.448Z,94980.00
2023-05-14T02:45:46.538Z,94980.00
2023-05-14T02:46:46.705Z,94978.00
2023-05-14T02:47:46.713Z,94978.00
2023-05-14T02:48:46.809Z,94976.00
2023-05-14T02:49:46.888Z,94972.00
2023-05-14T02:50:47.002Z,94974.00
2023-05-14T02:51:47.071Z,94972.00
2023-05-14T02:52:47.127Z,94968.00
2023-05-14T02:53:47.213Z,94964.00
2023-05-14T02:54:47.284Z,94966.00
2023-05-14T02:55:47.365Z,94960.00
2023-05-14T02:56:47.419Z,94960.00
2023-05-14T02:57:47.511Z,94962.00
2023-05-14T02:58:47.575Z,94960.00
2023-05-14T02:59:47.643Z,94960.00
2023-05-14T03:00:47.761Z,94966.00
2023-05-14T03:01:47.781Z,94962.00
2023-05-14T03:02:47.970Z,94962.00
2023-05-14T03:03:47.919Z,94960.00
2023-05-14T03:04:47.995Z,94966.00
2023-05-14T03:05:48.076Z,94962.00
2023-05-14T03:06:48.172Z,94960.00
2023-05-14T03:07:48.349Z,94960.00
2023-05-14T03:08:48.263Z,94960.00
2023-05-14T03:09:48.304Z,94959.00
2023-05-14T03:10:48.400Z,94960.00
2023-05-14T03:11:48.473Z,94960.00
2023-05-14T03:12:48.561Z,94960.00
2023-05-14T03:13:48.654Z,94960.00
2023-05-14T03:14:48.728Z,94960.00
2023-05-14T03:15:48.854Z,94960.00
2023-05-14T03:16:48.952Z,94962.00
2023-05-14T03:17:49.030Z,94960.00
2023-05-14T03:18:49.150Z,94959.00
2023-05-14T03:19:49.157Z,94959.00
2023-05-14T03:20:49.246Z,94957.00
2023-05-14T03:21:49.341Z,94957.00
2023-05-14T03:22:49.415Z,94955.00
2023-05-14T03:23:49.531Z,94955.00
2023-05-14T03:24:49.590Z,94955.00
2023-05-14T03:25:49.672Z,94953.00
2023-05-14T03:26:49.761Z,94955.00
2023-05-14T03:27:49.849Z,94955.00
2023-05-14T03:28:49.942Z,94955.00
2023-05-14T03:29:50.023Z,94953.00
2023-05-14T03:30:50.136Z,94953.00
2023-05-14T03:31:50.172Z,94951.00
2023-05-14T03:32:50.289Z,94955.00
2023-05-14T03:33:50.350Z,94955.00
2023-05-14T03:34:50.425Z,94957.00
2023-05-14T03:35:50.507Z,94953.00
2023-05-14T03:36:50.601Z,94955.00
2023-05-14T03:37:50.679Z,94953.00
2023-05-14T03:38:50.777Z,94953.00
2023-05-14T03:39:50.884Z,94955.00
2023-05-14T03:40:50.956Z,94957.00
2023-05-14T03:41:51.046Z,94957.00
2023-05-14T03:42:51.137Z,94955.00
2023-05-14T03:43:51.242Z,94955.00
2023-05-14T03:44:51.404Z,94957.00
2023-05-14T03:45:51.387Z,94959.00
2023-05-14T03:46:51.453Z,94960.00
2023-05-14T03:47:51.602Z,94964.00
2023-05-14T03:48:51.610Z,94966.00
2023-05-14T03:49:51.666Z,94966.00
2023-05-14T03:50:51.751Z,94968.00
2023-05-14T03:51:51.845Z,94966.00
2023-05-14T03:52:51.912Z,94972.00
2023-05-14T03:53:52.007Z,94970.00
2023-05-14T03:54:52.044Z,94972.00
2023-05-14T03:55:52.116Z,94972.00
2023-05-14T03:56:52.172Z,94974.00
2023-05-14T03:57:52.230Z,94974.00
2023-05-14T03:58:52.299Z,94974.00
2023-05-14T03:59:52.374Z,94978.00
2023-05-14T04:00:52.426Z,94978.00
2023-05-14T04:01:52.472Z,94978.00
2023-05-14T04:02:52.658Z,94978.00
2023-05-14T04:03:52.735Z,94976.00
2023-05-14T04:04:52.825Z,94976.00
2023-05-14T04:05:52.776Z,94978.00
2023-05-14T04:06:52.791Z,94978.00
2023-05-14T04:07:52.859Z,94980.00
2023-05-14T04:08:52.945Z,94982.00
2023-05-14T04:09:53.020Z,94980.00
2023-05-14T04:10:53.113Z,94980.00
2023-05-14T04:11:53.267Z,94978.00
2023-05-14T04:12:53.270Z,94976.00
2023-05-14T04:13:53.334Z,94974.00
2023-05-14T04:14:53.416Z,94976.00
2023-05-14T04:15:53.505Z,94972.00
2023-05-14T04:16:53.565Z,94974.00
2023-05-14T04:17:53.670Z,94972.00
2023-05-14T04:18:53.737Z,94972.00
2023-05-14T04:19:53.773Z,94972.00
2023-05-14T04:20:53.813Z,94970.00
2023-05-14T04:21:53.866Z,94968.00
2023-05-14T04:22:53.939Z,94968.00
2023-05-14T04:23:53.958Z,94966.00
2023-05-14T04:24:53.997Z,94964.00
2023-05-14T04:25:54.046Z,94964.00
2023-05-14T04:26:54.098Z,94962.00
2023-05-14T04:27:54.181Z,94962.00
2023-05-14T04:28:54.239Z,94962.00
2023-05-14T04:29:54.325Z,94959.00
2023-05-14T04:30:54.386Z,94959.00
2023-05-14T04:31:54.511Z,94955.00
2023-05-14T04:32:54.573Z,94955.00
2023-05-14T04:33:54.561Z,94953.00
2023-05-14T04:34:54.619Z,94951.00
2023-05-14T04:35:54.667Z,94949.00
2023-05-14T04:36:54.727Z,94945.00
2023-05-14T04:37:54.789Z,94945.00
2023-05-14T04:38:54.870Z,94945.00
2023-05-14T04:39:54.921Z,94947.00
2023-05-14T04:40:54.998Z,94945.00
2023-05-14T04:41:55.070Z,94951.00
2023-05-14T04:42:55.131Z,94953.00
2023-05-14T04:43:55.216Z,94955.00
2023-05-14T04:44:55.245Z,94957.00
2023-05-14T04:45:55.332Z,94957.00
2023-05-14T04:46:55.321Z,94957.00
2023-05-14T04:47:55.409Z,94955.00
2023-05-14T04:48:55.382Z,94957.00
2023-05-14T04:49:55.405Z,94955.00
2023-05-14T04:50:55.451Z,94953.00
2023-05-14T04:51:55.489Z,94953.00
2023-05-14T04:52:55.524Z,94953.00
2023-05-14T04:53:55.574Z,94955.00
2023-05-14T04:54:55.594Z,94955.00
2023-05-14T04:55:55.645Z,94957.00
2023-05-14T04:56:55.699Z,94957.00
2023-05-14T04:57:55.729Z,94959.00
2023-05-14T04:58:55.802Z,94959.00
2023-05-14T04:59:55.889Z,94959.00
2023-05-14T05:00:55.948Z,94962.00
2023-05-14T05:01:55.984Z,94962.00
2023-05-14T05:02:56.072Z,94962.00
2023-05-14T05:03:56.115Z,94964.00
2023-05-14T05:04:56.106Z,94962.00
2023-05-14T05:05:56.148Z,94964.00
2023-05-14T05:06:56.203Z,94964.00
2023-05-14T05:07:56.251Z,94962.00
2023-05-14T05:08:56.296Z,94959.00
2023-05-14T05:09:56.372Z,94959.00
2023-05-14T05:10:56.419Z,94960.00
2023-05-14T05:11:56.450Z,94960.00
2023-05-14T05:12:56.503Z,94962.00
2023-05-14T05:13:56.567Z,94962.00
2023-05-14T05:14:56.629Z,94962.00
2023-05-14T05:15:56.761Z,94964.00
2023-05-14T05:16:56.745Z,94962.00
2023-05-14T05:17:56.864Z,94966.00
2023-05-14T05:18:56.925Z,94962.00
2023-05-14T05:19:56.960Z,94960.00
2023-05-14T05:20:57.022Z,94964.00
2023-05-14T05:21:57.075Z,94962.00
2023-05-14T05:22:57.137Z,94962.00
2023-05-14T05:23:57.197Z,94962.00
2023-05-14T05:24:57.277Z,94960.00
2023-05-14T05:25:57.325Z,94960.00
2023-05-14T05:26:57.384Z,94960.00
2023-05-14T05:27:57.441Z,94960.00
2023-05-14T05:28:57.520Z,94962.00
2023-05-14T05:29:57.609Z,94964.00
2023-05-14T05:30:57.662Z,94964.00
2023-05-14T05:31:57.729Z,94964.00
2023-05-14T05:32:58.000Z,94964.00
2023-05-14T05:33:57.850Z,94960.00
2023-05-14T05:34:57.937Z,94959.00
2023-05-14T05:35:58.029Z,94959.00
2023-05-14T05:36:58.071Z,94957.00
2023-05-14T05:38:00.520Z,94953.00
2023-05-14T05:38:58.143Z,94953.00
2023-05-14T05:39:58.158Z,94953.00
2023-05-14T05:40:58.177Z,94955.00
2023-05-14T05:41:58.195Z,94953.00
2023-05-14T05:42:58.230Z,94953.00
2023-05-14T05:43:58.220Z,94953.00
2023-05-14T05:44:58.236Z,94951.00
2023-05-14T05:45:58.257Z,94951.00
2023-05-14T05:46:58.317Z,94951.00
2023-05-14T05:47:58.334Z,94947.00
2023-05-14T05:48:58.298Z,94945.00
2023-05-14T05:49:58.305Z,94945.00
2023-05-14T05:50:58.329Z,94943.00
2023-05-14T05:51:58.369Z,94941.00
2023-05-14T05:52:58.359Z,94943.00
2023-05-14T05:53:58.378Z,94941.00
2023-05-14T05:54:58.382Z,94941.00
2023-05-14T05:55:58.441Z,94941.00
2023-05-14T05:56:58.408Z,94943.00
2023-05-14T05:57:58.449Z,94937.00
2023-05-14T05:58:58.512Z,94937.00
2023-05-14T05:59:58.615Z,94933.00
2023-05-14T06:00:58.703Z,94931.00
2023-05-14T06:01:58.825Z,94931.00
2023-05-14T06:02:58.912Z,94931.00
2023-05-14T06:03:58.992Z,94929.00
2023-05-14T06:04:59.091Z,94929.00
2023-05-14T06:05:59.099Z,94933.00
2023-05-14T06:06:59.179Z,94931.00
2023-05-14T06:07:59.254Z,94933.00
2023-05-14T06:08:59.335Z,94927.00
2023-05-14T06:09:59.409Z,94929.00
2023-05-14T06:10:59.498Z,94925.00
2023-05-14T06:11:59.581Z,94921.00
2023-05-14T06:12:59.662Z,94919.00
2023-05-14T06:13:59.747Z,94919.00
2023-05-14T06:14:59.836Z,94919.00
2023-05-14T06:15:59.951Z,94915.00
2023-05-14T06:17:00.207Z,94917.00
2023-05-14T06:18:00.203Z,94915.00
2023-05-14T06:19:00.273Z,94911.00
2023-05-14T06:20:00.321Z,94909.00
2023-05-14T06:21:00.495Z,94907.00
2023-05-14T06:22:00.416Z,94907.00
2023-05-14T06:23:00.498Z,94905.00
2023-05-14T06:24:00.580Z,94904.00
2023-05-14T06:25:00.708Z,94904.00
2023-05-14T06:26:00.748Z,94902.00
2023-05-14T06:27:00.819Z,94902.00
2023-05-14T06:28:00.901Z,94902.00
2023-05-14T06:29:00.997Z,94902.00
2023-05-14T06:30:01.083Z,94900.00
2023-05-14T06:31:01.152Z,94902.00
2023-05-14T06:32:01.321Z,94902.00
2023-05-14T06:33:01.383Z,94902.00
2023-05-14T06:34:01.401Z,94898.00
2023-05-14T06:35:01.483Z,94898.00
2023-05-14T06:36:01.584Z,94900.00
2023-05-14T06:37:01.632Z,94902.00
2023-05-14T06:38:01.716Z,94905.00
2023-05-14T06:39:01.802Z,94904.00
2023-05-14T06:40:01.861Z,94904.00
2023-05-14T06:41:01.945Z,94907.00
2023-05-14T06:42:02.008Z,94909.00
2023-05-14T06:43:02.088Z,94911.00
2023-05-14T06:44:02.163Z,94913.00
2023-05-14T06:45:02.258Z,94915.00
2023-05-14T06:46:02.325Z,94913.00
2023-05-14T06:47:02.425Z,94911.00
2023-05-14T06:48:02.523Z,94911.00
2023-05-14T06:49:02.566Z,94909.00
2023-05-14T06:50:02.618Z,94913.00
2023-05-14T06:51:02.685Z,94911.00
2023-05-14T06:52:02.763Z,94911.00
2023-05-14T06:53:02.814Z,94911.00
2023-05-14T06:54:02.886Z,94907.00
2023-05-14T06:55:02.935Z,94909.00
2023-05-14T06:56:03.001Z,94905.00
2023-05-14T06:57:03.080Z,94909.00
2023-05-14T06:58:03.155Z,94907.00
2023-05-14T06:59:03.233Z,94905.00
2023-05-14T07:00:03.917Z,94907.00
2023-05-14T07:01:03.394Z,94907.00
2023-05-14T07:02:03.422Z,94902.00
2023-05-14T07:03:03.582Z,94905.00
2023-05-14T07:04:03.619Z,94905.00
2023-05-14T07:05:03.658Z,94905.00
2023-05-14T07:06:03.732Z,94905.00
2023-05-14T07:07:03.817Z,94905.00
2023-05-14T07:08:03.909Z,94904.00
2023-05-14T07:09:03.996Z,94905.00
2023-05-14T07:10:04.040Z,94907.00
2023-05-14T07:11:04.181Z,94907.00
2023-05-14T07:12:04.217Z,94904.00
2023-05-14T07:13:04.298Z,94904.00
2023-05-14T07:14:04.377Z,94905.00
2023-05-14T07:15:04.454Z,94904.00
2023-05-14T07:16:04.543Z,94902.00
2023-05-14T07:17:04.676Z,94900.00
2023-05-14T07:18:04.727Z,94902.00
2023-05-14T07:19:04.815Z,94900.00
2023-05-14T07:20:04.844Z,94898.00
2023-05-14T07:21:04.935Z,94896.00
2023-05-14T07:22:05.014Z,94894.00
2023-05-14T07:23:05.094Z,94892.00
2023-05-14T07:24:05.257Z,94890.00
2023-05-14T07:25:05.274Z,94880.00
2023-05-14T07:26:05.335Z,94876.00
2023-05-14T07:27:05.421Z,94874.00
2023-05-14T07:28:05.515Z,94870.00
2023-05-14T07:29:05.590Z,94868.00
2023-05-14T07:30:05.656Z,94866.00
2023-05-14T07:31:05.789Z,94862.00
2023-05-14T07:32:05.829Z,94862.00
2023-05-14T07:33:05.992Z,94862.00
2023-05-14T07:34:05.992Z,94859.00
2023-05-14T07:35:06.076Z,94857.00
2023-05-14T07:36:06.145Z,94855.00
2023-05-14T07:37:06.222Z,94853.00
2023-05-14T07:38:06.326Z,94847.00
2023-05-14T07:39:06.380Z,94845.00
2023-05-14T07:40:06.472Z,94849.00
2023-05-14T07:41:06.520Z,94843.00
2023-05-14T07:42:06.632Z,94843.00
2023-05-14T07:43:06.645Z,94843.00
2023-05-14T07:44:06.724Z,94841.00
2023-05-14T07:45:06.824Z,94841.00
2023-05-14T07:46:06.882Z,94843.00
2023-05-14T07:47:07.075Z,94843.00
2023-05-14T07:48:07.203Z,94841.00
2023-05-14T07:49:07.124Z,94841.00
2023-05-14T07:50:07.222Z,94849.00
2023-05-14T07:51:07.292Z,94845.00
2023-05-14T07:52:07.461Z,94847.00
2023-05-14T07:53:07.458Z,94843.00
2023-05-14T07:54:07.563Z,94845.00
2023-05-14T07:55:07.631Z,94847.00
2023-05-14T07:56:07.727Z,94845.00
2023-05-14T07:57:07.798Z,94843.00
2023-05-14T07:58:07.870Z,94845.00
2023-05-14T07:59:07.953Z,94845.00
2023-05-14T08:00:08.032Z,94841.00
2023-05-14T08:01:08.124Z,94841.00
2023-05-14T08:02:08.229Z,94843.00
2023-05-14T08:03:08.341Z,94841.00
2023-05-14T08:04:08.466Z,94839.00
2023-05-14T08:05:08.492Z,94841.00
2023-05-14T08:06:08.516Z,94837.00
2023-05-14T08:07:08.610Z,94839.00
2023-05-14T08:08:08.691Z,94839.00
2023-05-14T08:09:08.772Z,94835.00
2023-05-14T08:10:08.899Z,94833.00
2023-05-14T08:11:08.959Z,94837.00
2023-05-14T08:12:09.046Z,94837.00
2023-05-14T08:13:09.097Z,94835.00
2023-05-14T08:14:09.189Z,94831.00
2023-05-14T08:15:09.263Z,94831.00
2023-05-14T08:16:09.329Z,94831.00
2023-05-14T08:17:09.561Z,94829.00
2023-05-14T08:18:09.506Z,94827.00
2023-05-14T08:19:09.598Z,94827.00
2023-05-14T08:20:09.636Z,94827.00
2023-05-14T08:21:09.778Z,94827.00
2023-05-14T08:22:09.808Z,94827.00
2023-05-14T08:23:09.882Z,94823.00
2023-05-14T08:24:09.978Z,94827.00
2023-05-14T08:25:10.053Z,94827.00
2023-05-14T08:26:10.137Z,94825.00
2023-05-14T08:27:10.214Z,94825.00
2023-05-14T08:28:10.321Z,94825.00
2023-05-14T08:29:11.570Z,94825.00
2023-05-14T08:30:10.399Z,94823.00
2023-05-14T08:31:10.430Z,94823.00
2023-05-14T08:32:22.133Z,94819.00
2023-05-14T08:33:10.488Z,94821.00
2023-05-14T08:34:10.466Z,94817.00
2023-05-14T08:35:10.464Z,94819.00
2023-05-14T08:36:10.486Z,94817.00
2023-05-14T08:37:10.495Z,94817.00
2023-05-14T08:38:10.507Z,94817.00
2023-05-14T08:39:10.524Z,94819.00
2023-05-14T08:40:10.567Z,94819.00
2023-05-14T08:41:10.551Z,94817.00
2023-05-14T08:42:10.566Z,94819.00
2023-05-14T08:43:10.574Z,94817.00
2023-05-14T08:44:10.626Z,94819.00
2023-05-14T08:45:10.599Z,94819.00
2023-05-14T08:46:10.631Z,94817.00
2023-05-14T08:47:10.629Z,94817.00
2023-05-14T08:48:10.703Z,94815.00
2023-05-14T08:49:10.706Z,94817.00
2023-05-14T08:50:10.667Z,94817.00
2023-05-14T08:51:10.669Z,94815.00
2023-05-14T08:52:10.718Z,94819.00
2023-05-14T08:53:10.697Z,94815.00
2023-05-14T08:54:10.715Z,94813.00
2023-05-14T08:55:10.723Z,94811.00
2023-05-14T08:56:10.801Z,94815.00
2023-05-14T08:57:10.843Z,94813.00
2023-05-14T08:58:10.919Z,94815.00
2023-05-14T08:59:10.994Z,94813.00
2023-05-14T09:00:11.085Z,94815.00
2023-05-14T09:01:11.132Z,94813.00
2023-05-14T09:02:11.282Z,94815.00
2023-05-14T09:03:11.312Z,94815.00
2023-05-14T09:04:11.424Z,94815.00
2023-05-14T09:05:11.429Z,94815.00
2023-05-14T09:06:11.489Z,94813.00
2023-05-14T09:07:11.575Z,94813.00
2023-05-14T09:08:11.612Z,94811.00
2023-05-14T09:09:11.704Z,94811.00
2023-05-14T09:10:11.753Z,94809.00
2023-05-14T09:11:11.823Z,94811.00
2023-05-14T09:12:11.891Z,94809.00
2023-05-14T09:13:11.951Z,94809.00
2023-05-14T09:14:12.015Z,94809.00
2023-05-14T09:15:12.090Z,94808.00
2023-05-14T09:16:12.260Z,94806.00
2023-05-14T09:17:12.221Z,94806.00
2023-05-14T09:18:12.383Z,94806.00
2023-05-14T09:19:12.463Z,94804.00
2023-05-14T09:20:12.420Z,94806.00
2023-05-14T09:21:12.482Z,94804.00
2023-05-14T09:22:12.560Z,94802.00
2023-05-14T09:23:13.424Z,94802.00
2023-05-14T09:24:12.706Z,94800.00
2023-05-14T09:25:12.761Z,94796.00
2023-05-14T09:26:12.835Z,94796.00
2023-05-14T09:27:12.908Z,94794.00
2023-05-14T09:28:12.982Z,94788.00
2023-05-14T09:29:13.054Z,94790.00
2023-05-14T09:30:13.144Z,94786.00
2023-05-14T09:31:13.235Z,94788.00
2023-05-14T09:32:13.295Z,94786.00
2023-05-14T09:33:13.332Z,94786.00
2023-05-14T09:34:13.404Z,94788.00
2023-05-14T09:35:13.475Z,94786.00
2023-05-14T09:36:13.550Z,94786.00
2023-05-14T09:37:13.621Z,94788.00
2023-05-14T09:38:13.688Z,94786.00
2023-05-14T09:39:13.770Z,94788.00
2023-05-14T09:40:13.896Z,94786.00
2023-05-14T09:41:13.905Z,94786.00
2023-05-14T09:42:13.978Z,94788.00
2023-05-14T09:43:14.053Z,94786.00
2023-05-14T09:44:14.122Z,94788.00
2023-05-14T09:45:14.194Z,94786.00
2023-05-14T09:46:14.263Z,94784.00
2023-05-14T09:47:14.347Z,94784.00
2023-05-14T09:48:14.462Z,94784.00
2023-05-14T09:49:14.469Z,94776.00
2023-05-14T09:50:14.555Z,94776.00
2023-05-14T09:51:14.623Z,94772.00
2023-05-14T09:52:14.722Z,94772.00
2023-05-14T09:53:14.790Z,94770.00
2023-05-14T09:54:14.839Z,94770.00
2023-05-14T09:55:14.913Z,94770.00
2023-05-14T09:56:14.989Z,94770.00
2023-05-14T09:57:15.093Z,94768.00
2023-05-14T09:58:15.148Z,94766.00
2023-05-14T09:59:15.216Z,94768.00
2023-05-14T10:00:15.292Z,94766.00
2023-05-14T10:01:15.380Z,94764.00
2023-05-14T10:02:15.461Z,94764.00
2023-05-14T10:03:17.180Z,94764.00
2023-05-14T10:04:15.595Z,94764.00
2023-05-14T10:05:15.540Z,94764.00
2023-05-14T10:06:15.574Z,94762.00
2023-05-14T10:07:15.597Z,94762.00
2023-05-14T10:08:15.585Z,94760.00
2023-05-14T10:09:15.593Z,94758.00
2023-05-14T10:10:15.601Z,94755.00
2023-05-14T10:11:15.619Z,94755.00
2023-05-14T10:12:15.654Z,94755.00
2023-05-14T10:13:15.649Z,94753.00
2023-05-14T10:14:15.655Z,94753.00
2023-05-14T10:15:15.660Z,94749.00
2023-05-14T10:16:15.672Z,94751.00
2023-05-14T10:17:15.795Z,94747.00
2023-05-14T10:18:15.720Z,94745.00
2023-05-14T10:19:15.791Z,94741.00
2023-05-14T10:20:15.728Z,94743.00
2023-05-14T10:21:15.717Z,94743.00
2023-05-14T10:22:15.774Z,94741.00
2023-05-14T10:23:15.801Z,94743.00
2023-05-14T10:24:15.874Z,94741.00
2023-05-14T10:25:15.951Z,94739.00
2023-05-14T10:26:16.028Z,94739.00
2023-05-14T10:27:16.139Z,94737.00
2023-05-14T10:28:16.180Z,94737.00
2023-05-14T10:29:16.260Z,94735.00
2023-05-14T10:30:16.378Z,94737.00
2023-05-14T10:31:16.461Z,94735.00
2023-05-14T10:32:16.484Z,94731.00
2023-05-14T10:33:16.642Z,94731.00
2023-05-14T10:34:16.619Z,94727.00
2023-05-14T10:35:16.690Z,94727.00
2023-05-14T10:36:16.806Z,94727.00
2023-05-14T10:37:16.826Z,94723.00
2023-05-14T10:38:16.894Z,94725.00
2023-05-14T10:39:16.962Z,94721.00
2023-05-14T10:40:17.040Z,94719.00
2023-05-14T10:41:17.104Z,94717.00
2023-05-14T10:42:17.187Z,94713.00
2023-05-14T10:43:17.250Z,94717.00
2023-05-14T10:44:17.328Z,94715.00
2023-05-14T10:45:17.475Z,94715.00
2023-05-14T10:46:17.497Z,94713.00
2023-05-14T10:47:17.554Z,94713.00
2023-05-14T10:48:17.684Z,94711.00
2023-05-14T10:49:25.340Z,94710.00
2023-05-14T10:50:17.843Z,94706.00
2023-05-14T10:51:17.826Z,94706.00
2023-05-14T10:52:17.778Z,94704.00
2023-05-14T10:53:17.750Z,94704.00
2023-05-14T10:54:17.757Z,94708.00
2023-05-14T10:55:17.774Z,94700.00
2023-05-14T10:56:17.790Z,94700.00
2023-05-14T10:57:17.801Z,94700.00
2023-05-14T10:58:17.806Z,94702.00
2023-05-14T10:59:17.816Z,94702.00
2023-05-14T11:00:17.829Z,94700.00
2023-05-14T11:01:17.873Z,94702.00
2023-05-14T11:02:17.902Z,94700.00
2023-05-14T11:03:17.902Z,94700.00
2023-05-14T11:04:17.940Z,94698.00
2023-05-14T11:05:18.042Z,94696.00
2023-05-14T11:06:17.917Z,94694.00
2023-05-14T11:07:18.037Z,94692.00
2023-05-14T11:08:17.980Z,94692.00
2023-05-14T11:09:17.968Z,94690.00
2023-05-14T11:10:18.012Z,94690.00
2023-05-14T11:11:18.004Z,94688.00
2023-05-14T11:12:18.014Z,94688.00
2023-05-14T11:13:18.029Z,94686.00
2023-05-14T11:14:18.084Z,94680.00
2023-05-14T11:15:18.177Z,94682.00
2023-05-14T11:16:23.494Z,94680.00
2023-05-14T11:17:18.337Z,94678.00
2023-05-14T11:18:18.264Z,94676.00
2023-05-14T11:19:18.396Z,94674.00
2023-05-14T11:20:18.305Z,94672.00
2023-05-14T11:21:18.328Z,94672.00
2023-05-14T11:22:18.342Z,94672.00
2023-05-14T11:23:18.346Z,94672.00
2023-05-14T11:24:18.381Z,94672.00
2023-05-14T11:25:18.420Z,94666.00
2023-05-14T11:27:17.412Z,94668.00
2023-05-14T11:28:18.438Z,94668.00
2023-05-14T11:29:18.454Z,94668.00
2023-05-14T11:30:18.620Z,94666.00
2023-05-14T11:31:18.506Z,94666.00
2023-05-14T11:32:18.510Z,94664.00
2023-05-14T11:33:18.724Z,94664.00
2023-05-14T11:34:18.538Z,94664.00
2023-05-14T11:35:18.557Z,94661.00
2023-05-14T11:36:18.580Z,94661.00
2023-05-14T11:37:18.596Z,94661.00
2023-05-14T11:38:18.614Z,94663.00
2023-05-14T11:39:18.632Z,94663.00
2023-05-14T11:40:18.697Z,94663.00
2023-05-14T11:41:18.679Z,94659.00
2023-05-14T11:42:18.804Z,94657.00
2023-05-14T11:43:18.816Z,94661.00
2023-05-14T11:44:18.889Z,94659.00
2023-05-14T11:45:18.962Z,94659.00
2023-05-14T11:46:19.126Z,94657.00